sensor_id;sensor_type;location;lat;lon;timestamp;P1;durP1;ratioP1;P2;durP2;ratioP2
22007;SDS011;11168;56.976;24.168;2024-01-15T00:01:41;27.90;;;14.05;;
22007;SDS011;11168;56.976;24.168;2024-01-15T00:04:11;27.10;;;14.27;;
22007;SDS011;11168;56.976;24.168;2024-01-15T00:06:38;25.73;;;15.50;;
22007;SDS011;11168;56.976;24.168;2024-01-15T00:09:05;28.75;;;15.82;;
22007;SDS011;11168;56.976;24.168;2024-01-15T00:11:33;28.85;;;16.08;;
22007;SDS011;11168;56.976;24.168;2024-01-15T00:14:03;30.48;;;16.80;;
22007;SDS011;11168;56.976;24.168;2024-01-15T00:16:30;32.92;;;18.05;;
22007;SDS011;11168;56.976;24.168;2024-01-15T00:18:57;28.35;;;17.30;;
22007;SDS011;11168;56.976;24.168;2024-01-15T00:21:25;30.15;;;18.08;;
22007;SDS011;11168;56.976;24.168;2024-01-15T00:23:52;30.00;;;17.65;;
22007;SDS011;11168;56.976;24.168;2024-01-15T00:26:20;33.85;;;18.25;;
22007;SDS011;11168;56.976;24.168;2024-01-15T00:28:59;29.20;;;16.92;;
22007;SDS011;11168;56.976;24.168;2024-01-15T00:31:26;32.45;;;18.55;;
22007;SDS011;11168;56.976;24.168;2024-01-15T00:33:53;34.05;;;19.65;;
22007;SDS011;11168;56.976;24.168;2024-01-15T00:36:21;36.20;;;20.08;;
22007;SDS011;11168;56.976;24.168;2024-01-15T00:38:48;35.40;;;20.02;;
22007;SDS011;11168;56.976;24.168;2024-01-15T00:41:15;30.52;;;17.83;;
22007;SDS011;11168;56.976;24.168;2024-01-15T00:43:42;29.65;;;16.25;;
22007;SDS011;11168;56.976;24.168;2024-01-15T00:46:10;27.02;;;14.82;;
22007;SDS011;11168;56.976;24.168;2024-01-15T00:48:37;25.23;;;15.02;;
22007;SDS011;11168;56.976;24.168;2024-01-15T00:51:04;24.02;;;14.90;;
22007;SDS011;11168;56.976;24.168;2024-01-15T00:53:31;25.40;;;13.88;;
22007;SDS011;11168;56.976;24.168;2024-01-15T00:55:58;23.83;;;13.98;;
22007;SDS011;11168;56.976;24.168;2024-01-15T00:58:26;26.40;;;14.13;;
22007;SDS011;11168;56.976;24.168;2024-01-15T01:00:53;21.85;;;13.40;;
22007;SDS011;11168;56.976;24.168;2024-01-15T01:03:21;29.10;;;15.02;;
22007;SDS011;11168;56.976;24.168;2024-01-15T01:05:48;30.00;;;16.15;;
22007;SDS011;11168;56.976;24.168;2024-01-15T01:08:18;25.20;;;14.80;;
22007;SDS011;11168;56.976;24.168;2024-01-15T01:10:45;25.55;;;14.75;;
22007;SDS011;11168;56.976;24.168;2024-01-15T01:13:12;26.85;;;14.60;;
22007;SDS011;11168;56.976;24.168;2024-01-15T01:15:39;30.35;;;17.60;;
22007;SDS011;11168;56.976;24.168;2024-01-15T01:18:07;40.60;;;22.40;;
22007;SDS011;11168;56.976;24.168;2024-01-15T01:20:34;34.25;;;21.85;;
22007;SDS011;11168;56.976;24.168;2024-01-15T01:23:01;38.65;;;19.80;;
22007;SDS011;11168;56.976;24.168;2024-01-15T01:25:29;35.42;;;20.33;;
22007;SDS011;11168;56.976;24.168;2024-01-15T01:27:56;36.97;;;21.02;;
22007;SDS011;11168;56.976;24.168;2024-01-15T01:30:23;35.00;;;20.50;;
22007;SDS011;11168;56.976;24.168;2024-01-15T01:32:51;34.38;;;20.25;;
22007;SDS011;11168;56.976;24.168;2024-01-15T01:35:20;38.13;;;22.00;;
22007;SDS011;11168;56.976;24.168;2024-01-15T01:37:50;34.28;;;19.30;;
22007;SDS011;11168;56.976;24.168;2024-01-15T01:40:17;36.13;;;21.13;;
22007;SDS011;11168;56.976;24.168;2024-01-15T01:42:47;32.67;;;19.88;;
22007;SDS011;11168;56.976;24.168;2024-01-15T01:45:15;36.65;;;20.60;;
22007;SDS011;11168;56.976;24.168;2024-01-15T01:47:42;32.67;;;20.02;;
22007;SDS011;11168;56.976;24.168;2024-01-15T01:50:09;39.10;;;21.52;;
22007;SDS011;11168;56.976;24.168;2024-01-15T01:52:37;32.88;;;18.98;;
22007;SDS011;11168;56.976;24.168;2024-01-15T01:55:04;35.05;;;18.27;;
22007;SDS011;11168;56.976;24.168;2024-01-15T01:57:33;25.02;;;16.27;;
22007;SDS011;11168;56.976;24.168;2024-01-15T02:00:04;27.42;;;15.98;;
22007;SDS011;11168;56.976;24.168;2024-01-15T02:05:04;21.20;;;12.07;;
22007;SDS011;11168;56.976;24.168;2024-01-15T02:07:34;19.23;;;11.95;;
22007;SDS011;11168;56.976;24.168;2024-01-15T02:10:02;19.77;;;11.18;;
22007;SDS011;11168;56.976;24.168;2024-01-15T02:12:29;17.80;;;9.95;;
22007;SDS011;11168;56.976;24.168;2024-01-15T02:14:59;18.00;;;9.97;;
22007;SDS011;11168;56.976;24.168;2024-01-15T02:17:27;20.17;;;10.00;;
22007;SDS011;11168;56.976;24.168;2024-01-15T02:19:56;15.57;;;9.85;;
22007;SDS011;11168;56.976;24.168;2024-01-15T02:22:23;16.35;;;9.20;;
22007;SDS011;11168;56.976;24.168;2024-01-15T02:24:50;14.68;;;8.93;;
22007;SDS011;11168;56.976;24.168;2024-01-15T02:27:17;14.80;;;8.88;;
22007;SDS011;11168;56.976;24.168;2024-01-15T02:29:45;16.42;;;9.68;;
22007;SDS011;11168;56.976;24.168;2024-01-15T02:32:13;15.40;;;8.90;;
22007;SDS011;11168;56.976;24.168;2024-01-15T02:34:40;13.80;;;8.45;;
22007;SDS011;11168;56.976;24.168;2024-01-15T02:37:07;14.68;;;9.02;;
22007;SDS011;11168;56.976;24.168;2024-01-15T02:39:37;13.73;;;9.15;;
22007;SDS011;11168;56.976;24.168;2024-01-15T02:42:05;15.52;;;9.82;;
22007;SDS011;11168;56.976;24.168;2024-01-15T02:44:32;14.38;;;9.43;;
22007;SDS011;11168;56.976;24.168;2024-01-15T02:46:59;16.15;;;9.60;;
22007;SDS011;11168;56.976;24.168;2024-01-15T02:49:28;17.10;;;9.82;;
22007;SDS011;11168;56.976;24.168;2024-01-15T02:51:55;19.60;;;11.02;;
22007;SDS011;11168;56.976;24.168;2024-01-15T02:54:23;20.40;;;11.18;;
22007;SDS011;11168;56.976;24.168;2024-01-15T02:56:50;20.45;;;12.02;;
22007;SDS011;11168;56.976;24.168;2024-01-15T02:59:17;26.30;;;13.52;;
22007;SDS011;11168;56.976;24.168;2024-01-15T03:01:44;33.35;;;15.60;;
22007;SDS011;11168;56.976;24.168;2024-01-15T03:04:11;23.08;;;14.95;;
22007;SDS011;11168;56.976;24.168;2024-01-15T03:06:38;27.45;;;16.58;;
22007;SDS011;11168;56.976;24.168;2024-01-15T03:09:05;25.67;;;16.25;;
22007;SDS011;11168;56.976;24.168;2024-01-15T03:11:38;27.58;;;16.63;;
22007;SDS011;11168;56.976;24.168;2024-01-15T03:14:07;22.13;;;15.00;;
22007;SDS011;11168;56.976;24.168;2024-01-15T03:16:33;27.70;;;15.45;;
22007;SDS011;11168;56.976;24.168;2024-01-15T03:19:01;24.63;;;14.57;;
22007;SDS011;11168;56.976;24.168;2024-01-15T03:21:29;24.20;;;13.05;;
22007;SDS011;11168;56.976;24.168;2024-01-15T03:23:56;31.23;;;16.63;;
22007;SDS011;11168;56.976;24.168;2024-01-15T03:26:25;29.50;;;17.48;;
22007;SDS011;11168;56.976;24.168;2024-01-15T03:28:52;31.75;;;17.25;;
22007;SDS011;11168;56.976;24.168;2024-01-15T03:31:19;36.72;;;21.52;;
22007;SDS011;11168;56.976;24.168;2024-01-15T03:33:47;36.97;;;21.08;;
22007;SDS011;11168;56.976;24.168;2024-01-15T03:36:14;42.83;;;22.38;;
22007;SDS011;11168;56.976;24.168;2024-01-15T03:38:41;39.63;;;22.73;;
22007;SDS011;11168;56.976;24.168;2024-01-15T03:41:08;42.78;;;23.52;;
22007;SDS011;11168;56.976;24.168;2024-01-15T03:43:35;47.17;;;24.65;;
22007;SDS011;11168;56.976;24.168;2024-01-15T03:46:02;37.42;;;22.90;;
22007;SDS011;11168;56.976;24.168;2024-01-15T03:48:31;35.83;;;21.67;;
22007;SDS011;11168;56.976;24.168;2024-01-15T03:50:58;31.00;;;18.05;;
22007;SDS011;11168;56.976;24.168;2024-01-15T03:53:25;37.05;;;19.98;;
22007;SDS011;11168;56.976;24.168;2024-01-15T03:55:52;25.73;;;15.35;;
22007;SDS011;11168;56.976;24.168;2024-01-15T03:58:19;23.88;;;13.90;;
22007;SDS011;11168;56.976;24.168;2024-01-15T04:00:46;21.42;;;12.20;;
22007;SDS011;11168;56.976;24.168;2024-01-15T04:03:13;19.38;;;12.15;;
22007;SDS011;11168;56.976;24.168;2024-01-15T04:05:40;21.30;;;14.07;;
22007;SDS011;11168;56.976;24.168;2024-01-15T04:08:08;23.17;;;12.50;;
22007;SDS011;11168;56.976;24.168;2024-01-15T04:10:35;25.15;;;12.30;;
22007;SDS011;11168;56.976;24.168;2024-01-15T04:13:02;26.33;;;11.23;;
22007;SDS011;11168;56.976;24.168;2024-01-15T04:15:29;18.88;;;11.90;;
22007;SDS011;11168;56.976;24.168;2024-01-15T04:17:57;20.90;;;11.60;;
22007;SDS011;11168;56.976;24.168;2024-01-15T04:20:24;21.10;;;12.07;;
22007;SDS011;11168;56.976;24.168;2024-01-15T04:22:51;20.13;;;11.48;;
22007;SDS011;11168;56.976;24.168;2024-01-15T04:25:18;23.27;;;11.05;;
22007;SDS011;11168;56.976;24.168;2024-01-15T04:27:45;24.02;;;11.35;;
22007;SDS011;11168;56.976;24.168;2024-01-15T04:30:13;20.48;;;11.55;;
22007;SDS011;11168;56.976;24.168;2024-01-15T04:32:40;21.70;;;10.88;;
22007;SDS011;11168;56.976;24.168;2024-01-15T04:35:07;18.73;;;11.00;;
22007;SDS011;11168;56.976;24.168;2024-01-15T04:37:34;21.15;;;10.55;;
22007;SDS011;11168;56.976;24.168;2024-01-15T04:40:02;18.80;;;10.45;;
22007;SDS011;11168;56.976;24.168;2024-01-15T04:42:33;17.23;;;10.02;;
22007;SDS011;11168;56.976;24.168;2024-01-15T04:45:05;15.60;;;10.00;;
22007;SDS011;11168;56.976;24.168;2024-01-15T04:47:34;21.77;;;10.38;;
22007;SDS011;11168;56.976;24.168;2024-01-15T04:50:03;20.77;;;11.05;;
22007;SDS011;11168;56.976;24.168;2024-01-15T04:52:33;22.45;;;10.82;;
22007;SDS011;11168;56.976;24.168;2024-01-15T04:55:00;19.08;;;10.73;;
22007;SDS011;11168;56.976;24.168;2024-01-15T04:57:28;19.55;;;10.48;;
22007;SDS011;11168;56.976;24.168;2024-01-15T04:59:55;22.13;;;10.23;;
22007;SDS011;11168;56.976;24.168;2024-01-15T05:02:23;18.55;;;10.30;;
22007;SDS011;11168;56.976;24.168;2024-01-15T05:04:51;18.20;;;10.18;;
22007;SDS011;11168;56.976;24.168;2024-01-15T05:07:20;21.65;;;11.35;;
22007;SDS011;11168;56.976;24.168;2024-01-15T05:09:49;24.30;;;10.93;;
22007;SDS011;11168;56.976;24.168;2024-01-15T05:12:17;16.67;;;10.25;;
22007;SDS011;11168;56.976;24.168;2024-01-15T05:14:44;24.25;;;10.70;;
22007;SDS011;11168;56.976;24.168;2024-01-15T05:17:11;26.73;;;13.35;;
22007;SDS011;11168;56.976;24.168;2024-01-15T05:19:39;19.05;;;10.30;;
22007;SDS011;11168;56.976;24.168;2024-01-15T05:22:06;20.17;;;10.65;;
22007;SDS011;11168;56.976;24.168;2024-01-15T05:24:33;19.60;;;10.52;;
22007;SDS011;11168;56.976;24.168;2024-01-15T05:27:00;17.95;;;9.98;;
22007;SDS011;11168;56.976;24.168;2024-01-15T05:29:30;20.80;;;10.90;;
22007;SDS011;11168;56.976;24.168;2024-01-15T05:31:57;19.63;;;10.85;;
22007;SDS011;11168;56.976;24.168;2024-01-15T05:34:28;19.38;;;10.55;;
22007;SDS011;11168;56.976;24.168;2024-01-15T05:36:55;20.50;;;11.30;;
22007;SDS011;11168;56.976;24.168;2024-01-15T05:39:22;17.25;;;10.65;;
22007;SDS011;11168;56.976;24.168;2024-01-15T05:41:51;17.98;;;10.85;;
22007;SDS011;11168;56.976;24.168;2024-01-15T05:44:19;23.80;;;11.45;;
22007;SDS011;11168;56.976;24.168;2024-01-15T05:46:49;25.53;;;12.53;;
22007;SDS011;11168;56.976;24.168;2024-01-15T05:49:16;23.40;;;11.52;;
22007;SDS011;11168;56.976;24.168;2024-01-15T05:51:45;20.63;;;10.90;;
22007;SDS011;11168;56.976;24.168;2024-01-15T05:54:12;24.00;;;12.00;;
22007;SDS011;11168;56.976;24.168;2024-01-15T05:56:39;23.48;;;11.63;;
22007;SDS011;11168;56.976;24.168;2024-01-15T05:59:06;23.08;;;12.20;;
22007;SDS011;11168;56.976;24.168;2024-01-15T06:01:33;27.60;;;13.15;;
22007;SDS011;11168;56.976;24.168;2024-01-15T06:04:00;22.35;;;12.75;;
22007;SDS011;11168;56.976;24.168;2024-01-15T06:06:28;28.92;;;14.27;;
22007;SDS011;11168;56.976;24.168;2024-01-15T06:08:56;25.27;;;13.27;;
22007;SDS011;11168;56.976;24.168;2024-01-15T06:11:32;23.60;;;13.60;;
22007;SDS011;11168;56.976;24.168;2024-01-15T06:14:02;21.73;;;13.18;;
22007;SDS011;11168;56.976;24.168;2024-01-15T06:16:29;21.60;;;13.13;;
22007;SDS011;11168;56.976;24.168;2024-01-15T06:18:56;29.20;;;14.23;;
22007;SDS011;11168;56.976;24.168;2024-01-15T06:21:24;28.52;;;13.85;;
22007;SDS011;11168;56.976;24.168;2024-01-15T06:23:51;26.25;;;13.02;;
22007;SDS011;11168;56.976;24.168;2024-01-15T06:26:23;23.15;;;14.15;;
22007;SDS011;11168;56.976;24.168;2024-01-15T06:28:51;26.40;;;14.55;;
22007;SDS011;11168;56.976;24.168;2024-01-15T06:31:18;22.52;;;13.57;;
22007;SDS011;11168;56.976;24.168;2024-01-15T06:33:46;28.05;;;14.50;;
22007;SDS011;11168;56.976;24.168;2024-01-15T06:36:16;30.92;;;17.30;;
22007;SDS011;11168;56.976;24.168;2024-01-15T06:38:45;27.45;;;16.38;;
22007;SDS011;11168;56.976;24.168;2024-01-15T06:41:12;30.33;;;15.88;;
22007;SDS011;11168;56.976;24.168;2024-01-15T06:43:39;28.52;;;15.70;;
22007;SDS011;11168;56.976;24.168;2024-01-15T06:46:06;33.30;;;16.40;;
22007;SDS011;11168;56.976;24.168;2024-01-15T06:48:34;30.70;;;16.35;;
22007;SDS011;11168;56.976;24.168;2024-01-15T06:51:01;26.75;;;15.18;;
22007;SDS011;11168;56.976;24.168;2024-01-15T06:53:30;29.85;;;16.40;;
22007;SDS011;11168;56.976;24.168;2024-01-15T06:55:58;28.10;;;15.20;;
22007;SDS011;11168;56.976;24.168;2024-01-15T06:58:25;31.60;;;15.73;;
22007;SDS011;11168;56.976;24.168;2024-01-15T07:00:52;32.72;;;16.15;;
22007;SDS011;11168;56.976;24.168;2024-01-15T07:03:19;30.73;;;16.08;;
22007;SDS011;11168;56.976;24.168;2024-01-15T07:05:47;30.48;;;16.15;;
22007;SDS011;11168;56.976;24.168;2024-01-15T07:08:14;28.98;;;15.85;;
22007;SDS011;11168;56.976;24.168;2024-01-15T07:10:41;33.22;;;16.30;;
22007;SDS011;11168;56.976;24.168;2024-01-15T07:13:08;31.35;;;15.95;;
22007;SDS011;11168;56.976;24.168;2024-01-15T07:15:35;32.45;;;17.42;;
22007;SDS011;11168;56.976;24.168;2024-01-15T07:18:02;34.97;;;17.17;;
22007;SDS011;11168;56.976;24.168;2024-01-15T07:20:30;32.95;;;18.70;;
22007;SDS011;11168;56.976;24.168;2024-01-15T07:22:57;36.10;;;20.73;;
22007;SDS011;11168;56.976;24.168;2024-01-15T07:25:24;35.95;;;20.10;;
22007;SDS011;11168;56.976;24.168;2024-01-15T07:27:52;43.60;;;20.13;;
22007;SDS011;11168;56.976;24.168;2024-01-15T07:30:21;36.20;;;19.25;;
22007;SDS011;11168;56.976;24.168;2024-01-15T07:32:51;32.83;;;19.52;;
22007;SDS011;11168;56.976;24.168;2024-01-15T07:35:19;28.85;;;17.05;;
22007;SDS011;11168;56.976;24.168;2024-01-15T07:37:47;31.38;;;16.48;;
22007;SDS011;11168;56.976;24.168;2024-01-15T07:40:14;25.85;;;16.05;;
22007;SDS011;11168;56.976;24.168;2024-01-15T07:42:42;30.08;;;15.85;;
22007;SDS011;11168;56.976;24.168;2024-01-15T07:45:10;27.88;;;14.70;;
22007;SDS011;11168;56.976;24.168;2024-01-15T07:47:37;23.65;;;13.82;;
22007;SDS011;11168;56.976;24.168;2024-01-15T07:50:04;23.23;;;12.82;;
22007;SDS011;11168;56.976;24.168;2024-01-15T07:52:32;23.95;;;13.02;;
22007;SDS011;11168;56.976;24.168;2024-01-15T07:55:02;24.02;;;13.18;;
22007;SDS011;11168;56.976;24.168;2024-01-15T07:57:31;20.13;;;12.80;;
22007;SDS011;11168;56.976;24.168;2024-01-15T07:59:58;19.85;;;11.77;;
22007;SDS011;11168;56.976;24.168;2024-01-15T08:02:28;18.40;;;12.40;;
22007;SDS011;11168;56.976;24.168;2024-01-15T08:04:56;24.63;;;12.60;;
22007;SDS011;11168;56.976;24.168;2024-01-15T08:07:24;20.88;;;12.52;;
22007;SDS011;11168;56.976;24.168;2024-01-15T08:09:52;18.35;;;12.07;;
22007;SDS011;11168;56.976;24.168;2024-01-15T08:12:21;19.17;;;11.68;;
22007;SDS011;11168;56.976;24.168;2024-01-15T08:14:48;19.95;;;12.68;;
22007;SDS011;11168;56.976;24.168;2024-01-15T08:17:16;20.55;;;12.73;;
22007;SDS011;11168;56.976;24.168;2024-01-15T08:19:43;21.42;;;13.48;;
22007;SDS011;11168;56.976;24.168;2024-01-15T08:22:10;25.23;;;13.52;;
22007;SDS011;11168;56.976;24.168;2024-01-15T08:24:38;21.55;;;13.60;;
22007;SDS011;11168;56.976;24.168;2024-01-15T08:27:05;22.55;;;14.25;;
22007;SDS011;11168;56.976;24.168;2024-01-15T08:29:32;25.13;;;13.32;;
22007;SDS011;11168;56.976;24.168;2024-01-15T08:32:03;21.38;;;14.10;;
22007;SDS011;11168;56.976;24.168;2024-01-15T08:34:30;22.90;;;14.07;;
22007;SDS011;11168;56.976;24.168;2024-01-15T08:36:58;27.23;;;16.02;;
22007;SDS011;11168;56.976;24.168;2024-01-15T08:39:25;24.23;;;14.00;;
22007;SDS011;11168;56.976;24.168;2024-01-15T08:41:52;26.90;;;14.63;;
22007;SDS011;11168;56.976;24.168;2024-01-15T08:44:21;28.02;;;15.30;;
22007;SDS011;11168;56.976;24.168;2024-01-15T08:46:50;27.50;;;15.45;;
22007;SDS011;11168;56.976;24.168;2024-01-15T08:49:18;26.17;;;14.52;;
22007;SDS011;11168;56.976;24.168;2024-01-15T08:51:45;22.67;;;14.85;;
22007;SDS011;11168;56.976;24.168;2024-01-15T08:54:12;23.30;;;14.60;;
22007;SDS011;11168;56.976;24.168;2024-01-15T08:56:39;25.75;;;14.90;;
22007;SDS011;11168;56.976;24.168;2024-01-15T08:59:09;24.17;;;13.30;;
22007;SDS011;11168;56.976;24.168;2024-01-15T09:01:38;27.30;;;15.48;;
22007;SDS011;11168;56.976;24.168;2024-01-15T09:04:06;27.95;;;15.35;;
22007;SDS011;11168;56.976;24.168;2024-01-15T09:06:34;27.75;;;16.25;;
22007;SDS011;11168;56.976;24.168;2024-01-15T09:09:01;23.17;;;14.95;;
22007;SDS011;11168;56.976;24.168;2024-01-15T09:11:36;24.70;;;15.25;;
22007;SDS011;11168;56.976;24.168;2024-01-15T09:14:03;25.13;;;15.77;;
22007;SDS011;11168;56.976;24.168;2024-01-15T09:16:30;24.23;;;14.75;;
22007;SDS011;11168;56.976;24.168;2024-01-15T09:18:57;25.23;;;14.02;;
22007;SDS011;11168;56.976;24.168;2024-01-15T09:21:28;25.08;;;14.45;;
22007;SDS011;11168;56.976;24.168;2024-01-15T09:23:57;24.52;;;14.93;;
22007;SDS011;11168;56.976;24.168;2024-01-15T09:26:25;31.60;;;16.48;;
22007;SDS011;11168;56.976;24.168;2024-01-15T09:28:52;31.02;;;17.17;;
22007;SDS011;11168;56.976;24.168;2024-01-15T09:31:19;25.92;;;16.70;;
22007;SDS011;11168;56.976;24.168;2024-01-15T09:33:47;29.95;;;16.90;;
22007;SDS011;11168;56.976;24.168;2024-01-15T09:36:16;27.65;;;17.95;;
22007;SDS011;11168;56.976;24.168;2024-01-15T09:38:43;30.95;;;17.52;;
22007;SDS011;11168;56.976;24.168;2024-01-15T09:41:13;33.30;;;19.13;;
22007;SDS011;11168;56.976;24.168;2024-01-15T09:43:42;32.08;;;17.63;;
22007;SDS011;11168;56.976;24.168;2024-01-15T09:46:09;35.10;;;19.20;;
22007;SDS011;11168;56.976;24.168;2024-01-15T09:48:38;34.70;;;17.85;;
22007;SDS011;11168;56.976;24.168;2024-01-15T09:51:05;26.73;;;14.75;;
22007;SDS011;11168;56.976;24.168;2024-01-15T09:53:35;32.55;;;15.10;;
22007;SDS011;11168;56.976;24.168;2024-01-15T09:56:04;20.80;;;12.68;;
22007;SDS011;11168;56.976;24.168;2024-01-15T09:58:32;22.88;;;13.80;;
22007;SDS011;11168;56.976;24.168;2024-01-15T10:01:00;21.20;;;13.10;;
22007;SDS011;11168;56.976;24.168;2024-01-15T10:03:34;23.58;;;12.82;;
22007;SDS011;11168;56.976;24.168;2024-01-15T10:06:01;17.63;;;11.13;;
22007;SDS011;11168;56.976;24.168;2024-01-15T10:08:28;21.63;;;12.07;;
22007;SDS011;11168;56.976;24.168;2024-01-15T10:10:56;20.45;;;10.23;;
22007;SDS011;11168;56.976;24.168;2024-01-15T10:13:23;21.85;;;11.27;;
22007;SDS011;11168;56.976;24.168;2024-01-15T10:15:50;18.65;;;11.23;;
22007;SDS011;11168;56.976;24.168;2024-01-15T10:18:17;24.42;;;12.55;;
22007;SDS011;11168;56.976;24.168;2024-01-15T10:20:49;20.65;;;10.65;;
22007;SDS011;11168;56.976;24.168;2024-01-15T10:23:16;17.20;;;10.23;;
22007;SDS011;11168;56.976;24.168;2024-01-15T10:25:44;16.48;;;9.30;;
22007;SDS011;11168;56.976;24.168;2024-01-15T10:28:11;15.55;;;10.73;;
22007;SDS011;11168;56.976;24.168;2024-01-15T10:30:40;16.92;;;9.65;;
22007;SDS011;11168;56.976;24.168;2024-01-15T10:33:11;28.40;;;15.95;;
22007;SDS011;11168;56.976;24.168;2024-01-15T10:35:39;19.65;;;12.80;;
22007;SDS011;11168;56.976;24.168;2024-01-15T10:38:07;18.75;;;12.23;;
22007;SDS011;11168;56.976;24.168;2024-01-15T10:40:34;17.98;;;11.82;;
22007;SDS011;11168;56.976;24.168;2024-01-15T10:43:10;17.23;;;10.93;;
22007;SDS011;11168;56.976;24.168;2024-01-15T10:45:37;17.90;;;11.55;;
22007;SDS011;11168;56.976;24.168;2024-01-15T10:48:04;17.00;;;9.32;;
22007;SDS011;11168;56.976;24.168;2024-01-15T10:50:32;15.02;;;9.35;;
22007;SDS011;11168;56.976;24.168;2024-01-15T10:53:00;15.25;;;10.15;;
22007;SDS011;11168;56.976;24.168;2024-01-15T10:55:27;15.07;;;9.50;;
22007;SDS011;11168;56.976;24.168;2024-01-15T10:57:57;18.65;;;9.23;;
22007;SDS011;11168;56.976;24.168;2024-01-15T11:00:24;16.52;;;9.27;;
22007;SDS011;11168;56.976;24.168;2024-01-15T11:02:52;17.45;;;8.23;;
22007;SDS011;11168;56.976;24.168;2024-01-15T11:05:22;13.48;;;8.90;;
22007;SDS011;11168;56.976;24.168;2024-01-15T11:07:49;14.70;;;8.90;;
22007;SDS011;11168;56.976;24.168;2024-01-15T11:13:54;13.70;;;9.27;;
22007;SDS011;11168;56.976;24.168;2024-01-15T11:16:06;15.73;;;9.82;;
22007;SDS011;11168;56.976;24.168;2024-01-15T11:18:35;17.73;;;11.35;;
22007;SDS011;11168;56.976;24.168;2024-01-15T11:21:19;27.30;;;13.90;;
22007;SDS011;11168;56.976;24.168;2024-01-15T11:23:54;17.90;;;11.73;;
22007;SDS011;11168;56.976;24.168;2024-01-15T11:29:00;11.00;;;8.10;;
22007;SDS011;11168;56.976;24.168;2024-01-15T11:34:08;10.68;;;7.68;;
22007;SDS011;11168;56.976;24.168;2024-01-15T11:40:02;10.48;;;8.20;;
22007;SDS011;11168;56.976;24.168;2024-01-15T11:42:10;12.52;;;8.05;;
22007;SDS011;11168;56.976;24.168;2024-01-15T11:44:38;12.75;;;8.20;;
22007;SDS011;11168;56.976;24.168;2024-01-15T11:47:06;13.93;;;9.55;;
22007;SDS011;11168;56.976;24.168;2024-01-15T11:52:33;14.88;;;9.95;;
22007;SDS011;11168;56.976;24.168;2024-01-15T11:57:45;15.98;;;9.75;;
22007;SDS011;11168;56.976;24.168;2024-01-15T12:00:16;14.68;;;9.27;;
22007;SDS011;11168;56.976;24.168;2024-01-15T12:02:50;13.75;;;9.50;;
22007;SDS011;11168;56.976;24.168;2024-01-15T12:05:18;18.40;;;9.30;;
22007;SDS011;11168;56.976;24.168;2024-01-15T12:07:49;14.30;;;8.95;;
22007;SDS011;11168;56.976;24.168;2024-01-15T12:10:20;12.05;;;7.97;;
22007;SDS011;11168;56.976;24.168;2024-01-15T12:12:58;12.38;;;8.02;;
22007;SDS011;11168;56.976;24.168;2024-01-15T12:15:33;13.27;;;8.07;;
22007;SDS011;11168;56.976;24.168;2024-01-15T12:18:01;12.70;;;8.05;;
22007;SDS011;11168;56.976;24.168;2024-01-15T12:20:32;15.93;;;8.93;;
22007;SDS011;11168;56.976;24.168;2024-01-15T12:23:00;14.98;;;8.20;;
22007;SDS011;11168;56.976;24.168;2024-01-15T12:25:34;11.90;;;7.85;;
22007;SDS011;11168;56.976;24.168;2024-01-15T12:28:02;13.95;;;8.15;;
22007;SDS011;11168;56.976;24.168;2024-01-15T12:30:33;15.38;;;8.40;;
22007;SDS011;11168;56.976;24.168;2024-01-15T12:33:04;15.32;;;8.90;;
22007;SDS011;11168;56.976;24.168;2024-01-15T12:35:33;10.35;;;7.53;;
22007;SDS011;11168;56.976;24.168;2024-01-15T12:38:03;15.95;;;8.20;;
22007;SDS011;11168;56.976;24.168;2024-01-15T12:40:33;12.90;;;7.75;;
22007;SDS011;11168;56.976;24.168;2024-01-15T12:43:03;12.15;;;8.02;;
22007;SDS011;11168;56.976;24.168;2024-01-15T12:45:34;17.00;;;8.00;;
22007;SDS011;11168;56.976;24.168;2024-01-15T12:48:02;12.40;;;7.97;;
22007;SDS011;11168;56.976;24.168;2024-01-15T12:50:32;11.90;;;7.43;;
22007;SDS011;11168;56.976;24.168;2024-01-15T12:53:02;15.02;;;9.60;;
22007;SDS011;11168;56.976;24.168;2024-01-15T12:55:30;12.77;;;7.60;;
22007;SDS011;11168;56.976;24.168;2024-01-15T12:57:57;13.65;;;8.10;;
22007;SDS011;11168;56.976;24.168;2024-01-15T13:00:24;14.70;;;8.60;;
22007;SDS011;11168;56.976;24.168;2024-01-15T13:02:53;22.88;;;14.63;;
22007;SDS011;11168;56.976;24.168;2024-01-15T13:05:21;17.83;;;10.15;;
22007;SDS011;11168;56.976;24.168;2024-01-15T13:07:51;18.88;;;8.95;;
22007;SDS011;11168;56.976;24.168;2024-01-15T13:10:19;17.15;;;10.55;;
22007;SDS011;11168;56.976;24.168;2024-01-15T13:12:52;13.05;;;9.55;;
22007;SDS011;11168;56.976;24.168;2024-01-15T13:15:19;12.80;;;8.77;;
22007;SDS011;11168;56.976;24.168;2024-01-15T13:17:46;14.63;;;9.27;;
22007;SDS011;11168;56.976;24.168;2024-01-15T13:20:14;13.77;;;8.38;;
22007;SDS011;11168;56.976;24.168;2024-01-15T13:22:42;20.98;;;9.90;;
22007;SDS011;11168;56.976;24.168;2024-01-15T13:25:11;15.32;;;8.80;;
22007;SDS011;11168;56.976;24.168;2024-01-15T13:27:38;15.88;;;9.75;;
22007;SDS011;11168;56.976;24.168;2024-01-15T13:30:07;13.27;;;9.43;;
22007;SDS011;11168;56.976;24.168;2024-01-15T13:32:36;17.40;;;8.93;;
22007;SDS011;11168;56.976;24.168;2024-01-15T13:35:04;16.30;;;9.57;;
22007;SDS011;11168;56.976;24.168;2024-01-15T13:37:36;14.65;;;9.85;;
22007;SDS011;11168;56.976;24.168;2024-01-15T13:40:05;16.92;;;10.40;;
22007;SDS011;11168;56.976;24.168;2024-01-15T13:42:34;19.60;;;10.32;;
22007;SDS011;11168;56.976;24.168;2024-01-15T13:45:09;21.75;;;9.43;;
22007;SDS011;11168;56.976;24.168;2024-01-15T13:47:36;19.23;;;11.07;;
22007;SDS011;11168;56.976;24.168;2024-01-15T13:50:04;23.25;;;10.38;;
22007;SDS011;11168;56.976;24.168;2024-01-15T13:52:32;15.80;;;10.27;;
22007;SDS011;11168;56.976;24.168;2024-01-15T13:54:59;17.80;;;10.25;;
22007;SDS011;11168;56.976;24.168;2024-01-15T13:57:26;19.25;;;10.70;;
22007;SDS011;11168;56.976;24.168;2024-01-15T13:59:53;19.73;;;10.85;;
22007;SDS011;11168;56.976;24.168;2024-01-15T14:02:21;20.17;;;9.82;;
22007;SDS011;11168;56.976;24.168;2024-01-15T14:07:20;17.30;;;10.02;;
22007;SDS011;11168;56.976;24.168;2024-01-15T14:09:48;20.48;;;11.38;;
22007;SDS011;11168;56.976;24.168;2024-01-15T14:12:15;20.02;;;12.10;;
22007;SDS011;11168;56.976;24.168;2024-01-15T14:14:42;16.92;;;10.02;;
22007;SDS011;11168;56.976;24.168;2024-01-15T14:17:12;15.75;;;10.40;;
22007;SDS011;11168;56.976;24.168;2024-01-15T14:19:40;19.55;;;11.20;;
22007;SDS011;11168;56.976;24.168;2024-01-15T14:22:07;21.42;;;10.00;;
22007;SDS011;11168;56.976;24.168;2024-01-15T14:24:35;18.15;;;11.35;;
22007;SDS011;11168;56.976;24.168;2024-01-15T14:27:02;22.05;;;10.70;;
22007;SDS011;11168;56.976;24.168;2024-01-15T14:29:32;16.20;;;10.55;;
22007;SDS011;11168;56.976;24.168;2024-01-15T14:32:01;21.95;;;11.05;;
22007;SDS011;11168;56.976;24.168;2024-01-15T14:34:28;19.67;;;10.80;;
22007;SDS011;11168;56.976;24.168;2024-01-15T14:36:56;20.35;;;11.90;;
22007;SDS011;11168;56.976;24.168;2024-01-15T14:39:25;21.13;;;11.80;;